createdAt,value
2023-05-11T00:00:25.420Z,66.00
2023-05-11T00:01:04.181Z,65.57
2023-05-11T00:01:36.527Z,65.72
2023-05-11T00:02:09.396Z,65.65
2023-05-11T00:02:41.159Z,65.80
2023-05-11T00:03:13.068Z,66.30
2023-05-11T00:03:46.012Z,66.60
2023-05-11T00:04:17.983Z,66.43
2023-05-11T00:04:49.736Z,66.15
2023-05-11T00:05:22.459Z,65.47
2023-05-11T00:05:54.106Z,66.70
2023-05-11T00:06:25.820Z,65.65
2023-05-11T00:06:57.503Z,65.30
2023-05-11T00:07:30.172Z,66.85
2023-05-11T00:08:03.197Z,66.28
2023-05-11T00:08:34.931Z,65.45
2023-05-11T00:09:07.646Z,66.45
2023-05-11T00:09:39.326Z,65.85
2023-05-11T00:10:11.342Z,66.28
2023-05-11T00:10:44.011Z,66.10
2023-05-11T00:11:15.674Z,66.35
2023-05-11T00:11:47.326Z,65.07
2023-05-11T00:12:20.045Z,66.43
2023-05-11T00:12:51.697Z,65.88
2023-05-11T00:13:23.300Z,65.85
2023-05-11T00:13:55.926Z,66.40
2023-05-11T00:14:27.655Z,66.35
2023-05-11T00:14:59.343Z,66.80
2023-05-11T00:15:31.226Z,65.35
2023-05-11T00:16:04.581Z,65.75
2023-05-11T00:16:36.478Z,66.13
2023-05-11T00:17:08.113Z,66.40
2023-05-11T00:17:40.802Z,66.25
2023-05-11T00:18:12.447Z,66.45
2023-05-11T00:18:44.155Z,66.30
2023-05-11T00:19:16.617Z,65.28
2023-05-11T00:19:49.365Z,66.80
2023-05-11T00:20:21.983Z,65.95
2023-05-11T00:20:54.110Z,65.68
2023-05-11T00:21:26.798Z,66.33
2023-05-11T00:21:58.845Z,66.22
2023-05-11T00:22:30.485Z,65.45
2023-05-11T00:23:03.497Z,65.80
2023-05-11T00:23:36.107Z,66.85
2023-05-11T00:24:08.434Z,66.35
2023-05-11T00:24:40.101Z,65.05
2023-05-11T00:25:12.785Z,65.85
2023-05-11T00:25:44.490Z,65.65
2023-05-11T00:26:16.178Z,66.70
2023-05-11T00:26:49.151Z,65.72
2023-05-11T00:27:21.789Z,65.50
2023-05-11T00:27:53.408Z,65.13
2023-05-11T00:28:25.184Z,65.78
2023-05-11T00:28:57.807Z,66.05
2023-05-11T00:29:29.483Z,65.28
2023-05-11T00:30:01.069Z,65.38
2023-05-11T00:30:33.732Z,65.72
2023-05-11T00:31:05.412Z,65.20
2023-05-11T00:31:37.465Z,65.00
2023-05-11T00:32:10.165Z,65.78
2023-05-11T00:32:41.966Z,66.60
2023-05-11T00:33:13.725Z,65.35
2023-05-11T00:33:46.361Z,65.43
2023-05-11T00:34:18.384Z,66.03
2023-05-11T00:34:50.032Z,65.18
2023-05-11T00:35:22.763Z,64.65
2023-05-11T00:35:54.383Z,65.32
2023-05-11T00:36:26.176Z,66.05
2023-05-11T00:36:57.815Z,65.50
2023-05-11T00:37:30.585Z,65.10
2023-05-11T00:38:03.607Z,65.43
2023-05-11T00:38:36.588Z,65.38
2023-05-11T00:39:09.826Z,65.47
2023-05-11T00:39:41.574Z,66.40
2023-05-11T00:40:13.272Z,65.05
2023-05-11T00:40:46.226Z,65.07
2023-05-11T00:41:17.839Z,65.53
2023-05-11T00:41:49.468Z,65.30
2023-05-11T00:42:22.128Z,65.35
2023-05-11T00:42:53.789Z,65.40
2023-05-11T00:43:25.732Z,65.55
2023-05-11T00:43:57.376Z,64.75
2023-05-11T00:44:30.009Z,64.55
2023-05-11T00:45:01.772Z,64.43
2023-05-11T00:45:33.544Z,65.25
2023-05-11T00:46:06.583Z,64.65
2023-05-11T00:46:38.566Z,64.70
2023-05-11T00:47:10.459Z,64.95
2023-05-11T00:47:42.340Z,65.95
2023-05-11T00:48:15.443Z,65.38
2023-05-11T00:48:47.325Z,65.10
2023-05-11T00:49:21.483Z,64.85
2023-05-11T00:49:54.590Z,64.75
2023-05-11T00:50:26.663Z,64.45
2023-05-11T00:50:58.934Z,64.60
2023-05-11T00:51:32.060Z,65.15
2023-05-11T00:52:04.082Z,65.90
2023-05-11T00:52:35.878Z,65.72
2023-05-11T00:53:09.847Z,64.97
2023-05-11T00:53:41.519Z,65.82
2023-05-11T00:54:15.722Z,66.03
2023-05-11T00:54:47.784Z,65.28
2023-05-11T00:55:20.914Z,64.80
2023-05-11T00:55:52.820Z,66.53
2023-05-11T00:56:24.533Z,65.93
2023-05-11T00:56:57.195Z,64.93
2023-05-11T00:57:30.509Z,66.28
2023-05-11T00:58:05.518Z,66.15
2023-05-11T00:58:38.410Z,64.97
2023-05-11T00:59:10.158Z,65.68
2023-05-11T00:59:41.877Z,65.55
2023-05-11T01:00:15.092Z,65.20
2023-05-11T01:00:47.975Z,65.43
2023-05-11T01:01:19.993Z,65.05
2023-05-11T01:01:52.907Z,65.13
2023-05-11T01:02:24.693Z,66.53
2023-05-11T01:02:56.560Z,65.50
2023-05-11T01:03:28.265Z,65.25
2023-05-11T01:04:01.010Z,66.05
2023-05-11T01:04:32.969Z,65.65
2023-05-11T01:05:04.975Z,65.60
2023-05-11T01:05:42.313Z,65.47
2023-05-11T01:06:16.657Z,65.65
2023-05-11T01:06:55.975Z,66.05
2023-05-11T01:07:33.340Z,66.18
2023-05-11T01:08:06.862Z,66.60
2023-05-11T01:08:42.350Z,65.32
2023-05-11T01:09:23.108Z,65.40
2023-05-11T01:10:00.071Z,66.32
2023-05-11T01:10:33.474Z,65.80
2023-05-11T01:11:09.347Z,65.65
2023-05-11T01:11:43.725Z,65.63
2023-05-11T01:12:19.423Z,66.03
2023-05-11T01:12:56.893Z,66.47
2023-05-11T01:13:31.702Z,66.10
2023-05-11T01:14:06.549Z,66.13
2023-05-11T01:14:42.523Z,66.30
2023-05-11T01:15:18.252Z,66.20
2023-05-11T01:15:54.243Z,65.68
2023-05-11T01:16:31.576Z,65.90
2023-05-11T01:17:05.984Z,65.20
2023-05-11T01:17:44.109Z,65.75
2023-05-11T01:18:20.999Z,66.55
2023-05-11T01:18:56.273Z,67.73
2023-05-11T01:19:39.418Z,66.38
2023-05-11T01:20:17.024Z,66.80
2023-05-11T01:20:49.876Z,66.75
2023-05-11T01:21:21.801Z,66.68
2023-05-11T01:21:53.544Z,66.35
2023-05-11T01:22:32.233Z,66.10
2023-05-11T01:23:18.227Z,66.75
2023-05-11T01:24:13.239Z,66.72
2023-05-11T01:24:49.174Z,66.60
2023-05-11T01:25:42.448Z,66.95
2023-05-11T01:26:31.534Z,66.35
2023-05-11T01:27:14.419Z,67.38
2023-05-11T01:28:03.985Z,67.03
2023-05-11T01:28:52.551Z,66.50
2023-05-11T01:29:41.124Z,67.00
2023-05-11T01:30:34.696Z,66.30
2023-05-11T01:31:08.523Z,66.53
2023-05-11T01:31:41.910Z,66.65
2023-05-11T01:32:17.867Z,66.15
2023-05-11T01:32:49.620Z,66.72
2023-05-11T01:33:25.446Z,66.53
2023-05-11T01:33:59.627Z,65.28
2023-05-11T01:34:33.266Z,66.70
2023-05-11T01:35:06.668Z,65.97
2023-05-11T01:35:42.441Z,66.60
2023-05-11T01:36:15.640Z,67.53
2023-05-11T01:36:49.408Z,66.70
2023-05-11T01:37:23.765Z,66.93
2023-05-11T01:37:58.092Z,66.07
2023-05-11T01:38:32.110Z,67.55
2023-05-11T01:39:06.542Z,66.97
2023-05-11T01:39:40.057Z,67.47
2023-05-11T01:40:13.729Z,67.82
2023-05-11T01:40:51.890Z,66.85
2023-05-11T01:41:24.852Z,67.07
2023-05-11T01:41:58.495Z,66.47
2023-05-11T01:42:33.396Z,66.53
2023-05-11T01:43:07.460Z,66.90
2023-05-11T01:43:40.082Z,68.10
2023-05-11T01:44:13.277Z,67.97
2023-05-11T01:44:49.362Z,66.85
2023-05-11T01:45:22.894Z,66.90
2023-05-11T01:46:00.045Z,67.47
2023-05-11T01:46:33.149Z,67.22
2023-05-11T01:47:05.228Z,67.07
2023-05-11T01:47:39.258Z,66.43
2023-05-11T01:48:13.907Z,66.03
2023-05-11T01:48:49.121Z,66.63
2023-05-11T01:49:22.775Z,67.38
2023-05-11T01:49:54.900Z,66.65
2023-05-11T01:50:26.799Z,67.57
2023-05-11T01:51:01.938Z,65.78
2023-05-11T01:51:34.747Z,66.13
2023-05-11T01:52:07.781Z,67.25
2023-05-11T01:52:41.682Z,66.60
2023-05-11T01:53:13.835Z,66.40
2023-05-11T01:53:46.345Z,66.20
2023-05-11T01:54:20.793Z,66.13
2023-05-11T01:54:53.938Z,67.22
2023-05-11T01:55:26.080Z,66.68
2023-05-11T01:55:59.515Z,66.05
2023-05-11T01:56:31.643Z,66.55
2023-05-11T01:57:03.773Z,65.85
2023-05-11T01:57:38.013Z,66.82
2023-05-11T01:58:11.077Z,66.60
2023-05-11T01:58:43.443Z,66.25
2023-05-11T01:59:17.577Z,66.30
2023-05-11T01:59:50.235Z,66.18
2023-05-11T02:00:22.692Z,66.20
2023-05-11T02:01:03.101Z,66.95
2023-05-11T02:01:35.837Z,66.78
2023-05-11T02:02:08.584Z,66.22
2023-05-11T02:02:41.576Z,66.05
2023-05-11T02:03:14.290Z,66.45
2023-05-11T02:03:46.698Z,66.65
2023-05-11T02:04:19.881Z,67.75
2023-05-11T02:04:51.798Z,66.88
2023-05-11T02:05:24.597Z,66.95
2023-05-11T02:05:58.607Z,66.95
2023-05-11T02:06:31.497Z,67.22
2023-05-11T02:07:03.920Z,68.30
2023-05-11T02:07:37.451Z,66.85
2023-05-11T02:08:10.336Z,66.28
2023-05-11T02:08:42.078Z,66.55
2023-05-11T02:09:17.354Z,66.93
2023-05-11T02:09:49.960Z,67.85
2023-05-11T02:10:24.948Z,67.57
2023-05-11T02:10:58.612Z,68.00
2023-05-11T02:11:31.090Z,68.20
2023-05-11T02:12:03.847Z,67.25
2023-05-11T02:12:38.881Z,68.57
2023-05-11T02:13:11.989Z,68.53
2023-05-11T02:13:45.779Z,66.80
2023-05-11T02:14:18.043Z,67.68
2023-05-11T02:14:51.903Z,68.20
2023-05-11T02:15:24.556Z,67.65
2023-05-11T02:15:57.424Z,68.40
2023-05-11T02:16:31.984Z,68.47
2023-05-11T02:17:05.302Z,66.72
2023-05-11T02:17:38.878Z,67.60
2023-05-11T02:18:12.509Z,67.47
2023-05-11T02:18:45.913Z,69.10
2023-05-11T02:19:18.034Z,67.03
2023-05-11T02:19:50.770Z,67.85
2023-05-11T02:20:24.591Z,67.95
2023-05-11T02:20:59.148Z,68.15
2023-05-11T02:21:32.534Z,67.45
2023-05-11T02:22:05.066Z,68.13
2023-05-11T02:22:38.264Z,67.38
2023-05-11T02:23:10.113Z,67.70
2023-05-11T02:23:43.062Z,68.28
2023-05-11T02:24:14.911Z,68.35
2023-05-11T02:24:46.915Z,67.10
2023-05-11T02:25:19.828Z,68.50
2023-05-11T02:25:52.367Z,68.47
2023-05-11T02:26:24.546Z,67.88
2023-05-11T02:26:56.964Z,68.47
2023-05-11T02:27:29.754Z,68.88
2023-05-11T02:28:02.703Z,67.95
2023-05-11T02:28:34.441Z,69.28
2023-05-11T02:29:08.063Z,67.97
2023-05-11T02:29:39.801Z,68.57
2023-05-11T02:30:12.883Z,68.20
2023-05-11T02:30:47.456Z,67.53
2023-05-11T02:31:20.463Z,67.22
2023-05-11T02:31:56.901Z,67.50
2023-05-11T02:32:31.696Z,67.22
2023-05-11T02:33:05.794Z,68.07
2023-05-11T02:33:43.290Z,68.13
2023-05-11T02:34:21.062Z,68.90
2023-05-11T02:34:57.551Z,68.15
2023-05-11T02:35:29.863Z,68.70
2023-05-11T02:36:03.948Z,68.35
2023-05-11T02:36:38.126Z,68.38
2023-05-11T02:37:13.094Z,68.57
2023-05-11T02:37:47.594Z,69.57
2023-05-11T02:38:21.270Z,67.68
2023-05-11T02:38:54.964Z,68.18
2023-05-11T02:39:31.856Z,67.88
2023-05-11T02:40:05.368Z,68.53
2023-05-11T02:40:39.862Z,68.10
2023-05-11T02:41:13.702Z,68.82
2023-05-11T02:41:46.409Z,68.00
2023-05-11T02:42:19.381Z,68.97
2023-05-11T02:42:55.181Z,68.43
2023-05-11T02:43:32.018Z,69.05
2023-05-11T02:44:08.467Z,68.05
2023-05-11T02:44:44.621Z,69.38
2023-05-11T02:45:21.582Z,67.35
2023-05-11T02:45:59.242Z,67.35
2023-05-11T02:46:34.048Z,67.97
2023-05-11T02:47:10.018Z,67.90
2023-05-11T02:47:43.757Z,68.40
2023-05-11T02:48:19.923Z,67.63
2023-05-11T02:48:55.010Z,67.93
2023-05-11T02:49:30.363Z,68.00
2023-05-11T02:50:04.183Z,68.20
2023-05-11T02:50:40.888Z,68.88
2023-05-11T02:51:14.350Z,67.35
2023-05-11T02:51:51.056Z,68.18
2023-05-11T02:52:24.938Z,68.32
2023-05-11T02:52:59.488Z,69.00
2023-05-11T02:53:33.366Z,68.25
2023-05-11T02:54:07.274Z,69.22
2023-05-11T02:54:42.618Z,68.53
2023-05-11T02:55:15.341Z,68.00
2023-05-11T02:55:48.367Z,67.72
2023-05-11T02:56:22.017Z,69.05
2023-05-11T02:56:56.479Z,67.95
2023-05-11T02:57:29.820Z,67.50
2023-05-11T02:58:06.441Z,68.45
2023-05-11T02:58:38.609Z,67.25
2023-05-11T02:59:31.875Z,68.55
2023-05-11T03:00:04.121Z,67.60
2023-05-11T03:00:35.949Z,67.68
2023-05-11T03:01:07.874Z,66.43
2023-05-11T03:01:40.716Z,68.35
2023-05-11T03:02:14.051Z,67.28
2023-05-11T03:02:46.750Z,68.07
2023-05-11T03:03:20.558Z,67.10
2023-05-11T03:03:52.592Z,68.13
2023-05-11T03:04:24.609Z,68.05
2023-05-11T03:04:57.563Z,67.63
2023-05-11T03:05:29.162Z,67.82
2023-05-11T03:06:00.826Z,68.47
2023-05-11T03:06:33.398Z,68.07
2023-05-11T03:07:07.530Z,67.57
2023-05-11T03:07:39.329Z,68.03
2023-05-11T03:08:11.014Z,68.55
2023-05-11T03:08:42.908Z,66.88
2023-05-11T03:09:16.308Z,67.63
2023-05-11T03:09:51.349Z,67.35
2023-05-11T03:10:23.599Z,67.68
2023-05-11T03:10:57.010Z,67.13
2023-05-11T03:11:28.881Z,67.15
2023-05-11T03:12:02.192Z,67.65
2023-05-11T03:12:37.059Z,66.78
2023-05-11T03:13:09.592Z,66.63
2023-05-11T03:13:41.862Z,66.97
2023-05-11T03:14:21.873Z,67.55
2023-05-11T03:14:53.790Z,66.43
2023-05-11T03:15:25.661Z,66.32
2023-05-11T03:16:00.130Z,67.47
2023-05-11T03:17:40.999Z,67.30
2023-05-11T03:18:20.222Z,67.07
2023-05-11T03:18:52.347Z,67.82
2023-05-11T03:19:24.446Z,69.18
2023-05-11T03:19:58.164Z,69.43
2023-05-11T03:20:30.775Z,70.07
2023-05-11T03:21:02.953Z,70.32
2023-05-11T03:21:37.307Z,70.93
2023-05-11T03:22:09.951Z,71.82
2023-05-11T03:22:42.161Z,69.87
2023-05-11T03:23:16.755Z,69.85
2023-05-11T03:23:49.633Z,68.78
2023-05-11T03:24:44.355Z,69.65
2023-05-11T03:25:17.873Z,71.00
2023-05-11T03:26:11.747Z,70.47
2023-05-11T03:26:48.780Z,69.82
2023-05-11T03:27:23.641Z,70.68
2023-05-11T03:27:56.412Z,69.47
2023-05-11T03:28:30.806Z,69.95
2023-05-11T03:29:10.221Z,70.65
2023-05-11T03:29:46.307Z,69.72
2023-05-11T03:30:20.494Z,70.18
2023-05-11T03:30:56.849Z,69.63
2023-05-11T03:31:29.595Z,69.88
2023-05-11T03:32:04.271Z,70.78
2023-05-11T03:32:41.311Z,70.55
2023-05-11T03:33:14.286Z,68.90
2023-05-11T03:33:46.553Z,70.57
2023-05-11T03:34:19.214Z,69.20
2023-05-11T03:34:53.896Z,69.63
2023-05-11T03:35:28.795Z,68.28
2023-05-11T03:36:06.371Z,69.22
2023-05-11T03:36:42.098Z,69.22
2023-05-11T03:37:15.106Z,68.70
2023-05-11T03:37:49.368Z,68.75
2023-05-11T03:38:23.915Z,69.75
2023-05-11T03:38:59.325Z,69.35
2023-05-11T03:39:37.024Z,68.65
2023-05-11T03:40:11.864Z,70.20
2023-05-11T03:40:52.561Z,69.43
2023-05-11T03:41:27.726Z,69.53
2023-05-11T03:42:01.139Z,69.90
2023-05-11T03:42:33.549Z,69.63
2023-05-11T03:43:08.681Z,70.18
2023-05-11T03:43:40.841Z,70.20
2023-05-11T03:44:17.371Z,68.95
2023-05-11T03:44:51.497Z,70.03
2023-05-11T03:45:23.598Z,68.97
2023-05-11T03:45:56.326Z,71.13
2023-05-11T03:46:30.766Z,68.38
2023-05-11T03:47:03.792Z,68.78
2023-05-11T03:47:36.132Z,71.03
2023-05-11T03:48:10.044Z,70.25
2023-05-11T03:48:43.621Z,71.53
2023-05-11T03:49:17.639Z,71.15
2023-05-11T03:49:49.831Z,70.22
2023-05-11T03:50:22.783Z,70.32
2023-05-11T03:50:54.526Z,70.97
2023-05-11T03:51:26.235Z,71.13
2023-05-11T03:51:58.923Z,70.88
2023-05-11T03:52:31.554Z,70.38
2023-05-11T03:53:03.456Z,70.70
2023-05-11T03:53:36.212Z,70.78
2023-05-11T03:54:08.971Z,71.43
2023-05-11T03:54:43.162Z,70.95
2023-05-11T03:55:16.421Z,71.40
2023-05-11T03:55:48.163Z,71.32
2023-05-11T03:56:21.570Z,72.80
2023-05-11T03:56:53.260Z,71.55
2023-05-11T03:57:25.517Z,70.35
2023-05-11T03:57:58.192Z,72.25
2023-05-11T03:58:30.413Z,71.40
2023-05-11T03:59:02.532Z,71.75
2023-05-11T03:59:34.541Z,71.80
2023-05-11T04:00:08.107Z,72.28
2023-05-11T04:00:46.764Z,70.63
2023-05-11T04:01:18.662Z,71.78
2023-05-11T04:01:53.176Z,71.18
2023-05-11T04:02:25.000Z,71.05
2023-05-11T04:02:56.791Z,71.30
2023-05-11T04:03:31.016Z,72.18
2023-05-11T04:04:02.896Z,71.60
2023-05-11T04:04:34.772Z,71.20
2023-05-11T04:05:08.195Z,70.00
2023-05-11T04:05:40.599Z,72.30
2023-05-11T04:06:14.307Z,70.82
2023-05-11T04:06:46.993Z,70.40
2023-05-11T04:07:22.399Z,70.68
2023-05-11T04:07:54.067Z,71.35
2023-05-11T04:08:26.697Z,70.95
2023-05-11T04:08:58.420Z,72.18
2023-05-11T04:09:30.121Z,73.40
2023-05-11T04:10:02.928Z,72.95
2023-05-11T04:10:35.069Z,71.43
2023-05-11T04:11:06.694Z,71.82
2023-05-11T04:11:41.338Z,72.60
2023-05-11T04:12:13.067Z,72.07
2023-05-11T04:12:46.809Z,72.82
2023-05-11T04:13:19.422Z,71.78
2023-05-11T04:13:51.093Z,72.35
2023-05-11T04:14:22.810Z,71.82
2023-05-11T04:14:54.459Z,71.95
2023-05-11T04:15:27.093Z,71.25
2023-05-11T04:15:58.743Z,73.15
2023-05-11T04:16:30.561Z,72.30
2023-05-11T04:17:02.260Z,71.57
2023-05-11T04:17:34.923Z,72.43
2023-05-11T04:18:06.701Z,73.35
2023-05-11T04:18:39.826Z,72.70
2023-05-11T04:19:12.467Z,72.40
2023-05-11T04:19:44.160Z,72.97
2023-05-11T04:20:15.972Z,73.65
2023-05-11T04:20:50.146Z,73.07
2023-05-11T04:21:21.879Z,72.95
2023-05-11T04:21:53.592Z,73.05
2023-05-11T04:22:26.162Z,72.25
2023-05-11T04:22:57.822Z,73.20
2023-05-11T04:23:29.468Z,74.20
2023-05-11T04:24:04.572Z,71.53
2023-05-11T04:24:36.183Z,72.95
2023-05-11T04:25:08.382Z,72.97
2023-05-11T04:25:41.013Z,72.93
2023-05-11T04:26:12.740Z,72.70
2023-05-11T04:26:44.383Z,72.45
2023-05-11T04:27:17.480Z,73.32
2023-05-11T04:27:49.144Z,72.93
2023-05-11T04:28:22.107Z,75.30
2023-05-11T04:28:54.704Z,74.18
2023-05-11T04:29:26.398Z,73.07
2023-05-11T04:29:58.062Z,73.38
2023-05-11T04:30:30.712Z,73.50
2023-05-11T04:31:02.407Z,71.15
2023-05-11T04:31:34.694Z,71.80
2023-05-11T04:32:08.184Z,71.18
2023-05-11T04:32:40.878Z,71.32
2023-05-11T04:33:14.560Z,72.10
2023-05-11T04:33:47.573Z,72.63
2023-05-11T04:34:20.391Z,71.95
2023-05-11T04:34:52.334Z,71.00
2023-05-11T04:35:27.077Z,70.80
2023-05-11T04:36:00.225Z,70.63
2023-05-11T04:36:32.963Z,71.45
2023-05-11T04:37:07.346Z,69.32
2023-05-11T04:37:41.127Z,71.22
2023-05-11T04:38:14.204Z,70.20
2023-05-11T04:38:45.831Z,72.10
2023-05-11T04:39:18.936Z,71.13
2023-05-11T04:39:51.467Z,70.38
2023-05-11T04:40:23.123Z,71.68
2023-05-11T04:40:56.384Z,71.80
2023-05-11T04:41:28.089Z,71.05
2023-05-11T04:42:02.769Z,69.70
2023-05-11T04:42:35.678Z,70.85
2023-05-11T04:43:09.015Z,70.25
2023-05-11T04:43:40.738Z,69.53
2023-05-11T04:44:15.035Z,71.38
2023-05-11T04:44:46.743Z,72.00
2023-05-11T04:45:20.845Z,69.28
2023-05-11T04:45:53.555Z,69.57
2023-05-11T04:46:29.561Z,69.85
2023-05-11T04:47:01.407Z,69.07
2023-05-11T04:47:34.264Z,69.53
2023-05-11T04:48:06.692Z,69.82
2023-05-11T04:48:38.576Z,69.45
2023-05-11T04:49:13.423Z,69.57
2023-05-11T04:49:45.131Z,70.20
2023-05-11T04:50:17.186Z,70.47
2023-05-11T04:50:49.825Z,70.00
2023-05-11T04:51:24.538Z,70.93
2023-05-11T04:51:56.275Z,70.15
2023-05-11T04:52:28.418Z,70.63
2023-05-11T04:53:01.044Z,70.07
2023-05-11T04:53:33.236Z,70.05
2023-05-11T04:54:04.944Z,69.85
2023-05-11T04:54:39.169Z,70.03
2023-05-11T04:55:11.114Z,70.53
2023-05-11T04:55:43.778Z,70.15
2023-05-11T04:56:15.470Z,70.18
2023-05-11T04:56:47.359Z,68.63
2023-05-11T04:57:19.534Z,69.70
2023-05-11T04:57:53.219Z,69.60
2023-05-11T04:58:27.535Z,70.88
2023-05-11T04:58:59.166Z,69.82
2023-05-11T04:59:31.023Z,69.05
2023-05-11T05:00:04.335Z,69.13
2023-05-11T05:00:37.098Z,68.85
2023-05-11T05:01:11.822Z,70.97
2023-05-11T05:01:45.600Z,69.13
2023-05-11T05:02:17.225Z,69.22
2023-05-11T05:02:50.910Z,69.90
2023-05-11T05:03:23.633Z,71.13
2023-05-11T05:03:55.454Z,69.50
2023-05-11T05:04:28.575Z,68.73
2023-05-11T05:05:01.626Z,69.40
2023-05-11T05:05:33.454Z,70.07
2023-05-11T05:06:05.249Z,69.60
2023-05-11T05:06:38.287Z,68.60
2023-05-11T05:07:10.559Z,69.10
2023-05-11T05:07:42.265Z,69.43
2023-05-11T05:08:15.004Z,70.13
2023-05-11T05:08:46.708Z,69.70
2023-05-11T05:09:19.272Z,69.97
2023-05-11T05:09:51.072Z,69.65
2023-05-11T05:10:23.164Z,68.60
2023-05-11T05:10:55.763Z,69.53
2023-05-11T05:11:27.516Z,68.10
2023-05-11T05:11:59.185Z,68.15
2023-05-11T05:12:31.841Z,68.80
2023-05-11T05:13:03.885Z,68.93
2023-05-11T05:13:35.837Z,68.60
2023-05-11T05:14:08.422Z,67.88
2023-05-11T05:14:40.102Z,69.18
2023-05-11T05:15:12.212Z,68.57
2023-05-11T05:15:44.853Z,67.85
2023-05-11T05:16:16.977Z,67.95
2023-05-11T05:16:48.837Z,68.47
2023-05-11T05:17:21.520Z,68.03
2023-05-11T05:17:53.323Z,67.68
2023-05-11T05:18:26.495Z,67.57
2023-05-11T05:18:58.249Z,67.97
2023-05-11T05:19:31.794Z,67.75
2023-05-11T05:20:05.062Z,69.50
2023-05-11T05:20:37.012Z,67.82
2023-05-11T05:21:08.659Z,68.07
2023-05-11T05:21:41.617Z,68.10
2023-05-11T05:22:13.270Z,67.55
2023-05-11T05:22:44.941Z,67.70
2023-05-11T05:23:17.552Z,68.20
2023-05-11T05:23:49.467Z,68.55
2023-05-11T05:24:21.134Z,68.10
2023-05-11T05:24:53.823Z,67.28
2023-05-11T05:25:25.817Z,68.03
2023-05-11T05:25:57.648Z,69.13
2023-05-11T05:26:30.285Z,68.18
2023-05-11T05:27:02.198Z,67.22
2023-05-11T05:27:35.438Z,68.00
2023-05-11T05:28:10.289Z,66.15
2023-05-11T05:28:42.123Z,68.25
2023-05-11T05:29:15.479Z,69.18
2023-05-11T05:29:47.422Z,67.82
2023-05-11T05:30:19.670Z,68.30
2023-05-11T05:30:53.825Z,67.40
2023-05-11T05:31:26.364Z,67.47
2023-05-11T05:31:59.902Z,67.97
2023-05-11T05:32:33.272Z,67.30
2023-05-11T05:33:05.169Z,68.07
2023-05-11T05:33:38.644Z,68.72
2023-05-11T05:34:46.959Z,68.80
2023-05-11T05:35:19.393Z,67.38
2023-05-11T05:35:52.013Z,68.47
2023-05-11T05:36:23.736Z,67.97
2023-05-11T05:36:55.522Z,68.15
2023-05-11T05:37:28.184Z,67.80
2023-05-11T05:38:00.005Z,67.68
2023-05-11T05:38:31.703Z,67.57
2023-05-11T05:39:08.956Z,67.45
2023-05-11T05:39:40.741Z,67.88
2023-05-11T05:40:12.589Z,67.68
2023-05-11T05:40:52.735Z,68.13
2023-05-11T05:41:25.605Z,68.47
2023-05-11T05:41:57.294Z,68.00
2023-05-11T05:42:30.784Z,67.55
2023-05-11T05:43:02.761Z,68.47
2023-05-11T05:43:34.832Z,68.57
2023-05-11T05:44:07.655Z,68.95
2023-05-11T05:44:39.746Z,67.05
2023-05-11T05:45:14.558Z,66.60
2023-05-11T05:45:47.751Z,67.53
2023-05-11T05:46:19.699Z,68.05
2023-05-11T05:46:51.662Z,68.53
2023-05-11T05:47:23.408Z,68.30
2023-05-11T05:47:57.106Z,68.43
2023-05-11T05:48:28.792Z,67.75
2023-05-11T05:49:01.486Z,67.68
2023-05-11T05:49:33.185Z,67.95
2023-05-11T05:50:07.826Z,67.40
2023-05-11T05:50:39.496Z,67.47
2023-05-11T05:51:11.497Z,68.20
2023-05-11T05:51:44.463Z,67.35
2023-05-11T05:52:16.183Z,67.07
2023-05-11T05:52:48.345Z,67.85
2023-05-11T05:53:21.482Z,68.55
2023-05-11T05:53:53.169Z,68.18
2023-05-11T05:54:25.841Z,66.63
2023-05-11T05:54:59.587Z,67.80
2023-05-11T05:55:31.355Z,68.05
2023-05-11T05:56:04.794Z,67.82
2023-05-11T05:56:37.525Z,68.03
2023-05-11T05:57:12.271Z,67.32
2023-05-11T05:57:45.039Z,68.55
2023-05-11T05:58:17.700Z,68.83
2023-05-11T05:58:49.406Z,67.32
2023-05-11T05:59:24.239Z,69.07
2023-05-11T06:00:00.590Z,68.13
2023-05-11T06:00:32.571Z,69.47
2023-05-11T06:01:10.622Z,68.10
2023-05-11T06:01:46.220Z,68.05
2023-05-11T06:02:19.640Z,67.60
2023-05-11T06:02:52.353Z,67.53
2023-05-11T06:03:29.833Z,67.05
2023-05-11T06:04:02.223Z,67.22
2023-05-11T06:04:37.396Z,67.30
2023-05-11T06:05:10.865Z,66.72
2023-05-11T06:05:42.680Z,66.90
2023-05-11T06:06:15.520Z,67.50
2023-05-11T06:06:47.416Z,65.85
2023-05-11T06:07:19.088Z,66.18
2023-05-11T06:08:01.817Z,67.38
2023-05-11T06:08:43.436Z,67.13
2023-05-11T06:09:15.057Z,67.57
2023-05-11T06:09:47.193Z,67.80
2023-05-11T06:10:20.699Z,66.70
2023-05-11T06:10:56.224Z,66.95
2023-05-11T06:11:29.268Z,66.63
2023-05-11T06:12:01.708Z,67.75
2023-05-11T06:12:36.406Z,66.85
2023-05-11T06:13:09.561Z,67.30
2023-05-11T06:13:47.094Z,67.00
2023-05-11T06:14:20.312Z,68.00
2023-05-11T06:14:51.998Z,67.20
2023-05-11T06:15:25.052Z,66.30
2023-05-11T06:16:03.153Z,66.45
2023-05-11T06:16:38.998Z,67.10
2023-05-11T06:17:10.869Z,66.78
2023-05-11T06:17:42.551Z,66.45
2023-05-11T06:18:16.744Z,66.55
2023-05-11T06:18:49.413Z,66.07
2023-05-11T06:19:21.174Z,66.80
2023-05-11T06:19:53.821Z,66.45
2023-05-11T06:20:31.794Z,66.05
2023-05-11T06:21:04.666Z,66.82
2023-05-11T06:21:37.336Z,66.30
2023-05-11T06:22:09.248Z,66.82
2023-05-11T06:22:42.157Z,66.13
2023-05-11T06:23:14.062Z,66.32
2023-05-11T06:23:48.391Z,66.22
2023-05-11T06:24:20.472Z,67.07
2023-05-11T06:24:52.348Z,67.00
2023-05-11T06:25:27.824Z,66.20
2023-05-11T06:25:59.628Z,66.53
2023-05-11T06:26:33.963Z,66.45
2023-05-11T06:27:05.705Z,67.07
2023-05-11T06:27:38.285Z,66.78
2023-05-11T06:28:10.910Z,67.43
2023-05-11T06:28:43.260Z,66.70
2023-05-11T06:29:25.094Z,67.15
2023-05-11T06:29:58.068Z,66.50
2023-05-11T06:30:32.505Z,66.32
2023-05-11T06:31:05.209Z,65.13
2023-05-11T06:31:41.224Z,65.15
2023-05-11T06:32:14.364Z,65.60
2023-05-11T06:32:46.731Z,66.23
2023-05-11T06:33:20.762Z,66.70
2023-05-11T06:33:52.451Z,66.38
2023-05-11T06:34:29.471Z,65.45
2023-05-11T06:35:02.173Z,66.85
2023-05-11T06:35:37.568Z,65.88
2023-05-11T06:36:11.736Z,65.65
2023-05-11T06:36:43.493Z,67.13
2023-05-11T06:37:20.676Z,65.80
2023-05-11T06:37:54.647Z,66.35
2023-05-11T06:38:28.511Z,66.47
2023-05-11T06:39:01.676Z,66.38
2023-05-11T06:39:35.382Z,66.53
2023-05-11T06:40:07.816Z,66.13
2023-05-11T06:40:40.453Z,65.78
2023-05-11T06:41:12.161Z,65.20
2023-05-11T06:41:44.471Z,65.03
2023-05-11T06:42:17.092Z,65.60
2023-05-11T06:42:48.860Z,64.78
2023-05-11T06:43:20.530Z,64.82
2023-05-11T06:43:54.696Z,64.97
2023-05-11T06:44:32.032Z,64.95
2023-05-11T06:45:03.862Z,64.45
2023-05-11T06:45:36.922Z,65.03
2023-05-11T06:46:08.586Z,64.60
2023-05-11T06:46:40.331Z,65.00
2023-05-11T06:47:12.970Z,64.55
2023-05-11T06:47:44.643Z,64.50
2023-05-11T06:48:16.349Z,65.03
2023-05-11T06:48:50.253Z,65.63
2023-05-11T06:49:21.951Z,64.53
2023-05-11T06:49:53.600Z,64.70
2023-05-11T06:50:27.754Z,65.60
2023-05-11T06:51:01.511Z,64.45
2023-05-11T06:51:34.129Z,64.53
2023-05-11T06:52:06.385Z,65.03
2023-05-11T06:52:38.060Z,65.22
2023-05-11T06:53:10.740Z,65.20
2023-05-11T06:53:42.506Z,65.00
2023-05-11T06:54:15.176Z,64.57
2023-05-11T06:54:46.796Z,64.70
2023-05-11T06:55:18.468Z,64.10
2023-05-11T06:55:51.145Z,64.88
2023-05-11T06:56:22.862Z,65.55
2023-05-11T06:56:54.511Z,64.43
2023-05-11T06:57:27.140Z,65.13
2023-05-11T06:57:59.239Z,65.20
2023-05-11T06:58:31.453Z,65.75
2023-05-11T06:59:04.109Z,66.63
2023-05-11T06:59:35.783Z,66.25
2023-05-11T07:00:08.196Z,66.18
2023-05-11T07:00:40.825Z,66.32
2023-05-11T07:01:12.499Z,65.18
2023-05-11T07:01:45.474Z,66.72
2023-05-11T07:02:17.231Z,66.20
2023-05-11T07:02:48.911Z,66.00
2023-05-11T07:03:21.543Z,65.82
2023-05-11T07:03:54.980Z,65.35
2023-05-11T07:04:26.752Z,65.68
2023-05-11T07:04:59.495Z,65.70
2023-05-11T07:05:31.445Z,65.20
2023-05-11T07:06:05.699Z,64.97
2023-05-11T07:06:37.328Z,64.85
2023-05-11T07:07:11.278Z,64.40
2023-05-11T07:07:43.888Z,66.30
2023-05-11T07:08:15.598Z,64.93
2023-05-11T07:08:48.264Z,65.20
2023-05-11T07:09:19.917Z,66.18
2023-05-11T07:09:51.568Z,65.15
2023-05-11T07:10:24.470Z,64.72
2023-05-11T07:10:56.213Z,65.13
2023-05-11T07:11:27.920Z,65.30
2023-05-11T07:12:00.574Z,65.68
2023-05-11T07:12:32.266Z,64.38
2023-05-11T07:13:03.897Z,64.95